Time;durP1;ratioP1;P1;durP2;ratioP2;P2;SDS_P1;SDS_P2;PMS_P1;PMS_P2;Temp;Humidity;BMP_temperature;BMP_pressure;BME280_temperature;BME280_humidity;BME280_pressure;Samples;Min_cycle;Max_cycle;Signal;HPM_P1;HPM_P2
2022/07/15 04:01:41;;;;;;;1.47;1.47;;;13.90;99.90;;;;;;5340983;23;21085;-68
2022/07/15 04:04:08;;;;;;;2.20;1.02;;;14.00;99.90;;;;;;4940160;29;20465;-67
2022/07/15 04:06:35;;;;;;;2.83;1.63;;;14.00;99.90;;;;;;4941607;29;20201;-67
2022/07/15 04:09:03;;;;;;;1.30;0.93;;;14.00;99.90;;;;;;4941352;29;20214;-68
2022/07/15 04:11:30;;;;;;;2.23;1.60;;;14.00;99.90;;;;;;4941800;29;20499;-68
2022/07/15 04:13:56;;;;;;;2.03;1.30;;;14.00;99.90;;;;;;4933222;29;20557;-68
2022/07/15 04:16:23;;;;;;;2.22;2.13;;;14.00;99.90;;;;;;4972947;23;20498;-69
2022/07/15 04:18:51;;;;;;;3.27;1.37;;;14.00;99.90;;;;;;4964617;28;20645;-70
2022/07/15 04:21:18;;;;;;;2.20;1.50;;;14.00;99.90;;;;;;4963813;28;20514;-70
2022/07/15 04:23:45;;;;;;;5.93;2.77;;;14.10;99.90;;;;;;4964218;28;20959;-69
2022/07/15 04:26:12;;;;;;;4.47;1.50;;;14.10;99.90;;;;;;4950355;28;20481;-70
2022/07/15 04:28:39;;;;;;;0.93;0.90;;;14.20;99.90;;;;;;4943586;29;20476;-69
2022/07/15 04:31:06;;;;;;;3.43;1.37;;;14.10;99.90;;;;;;4940305;29;20476;-68
2022/07/15 04:33:32;;;;;;;2.10;1.40;;;14.20;99.90;;;;;;4941391;29;20473;-70
2022/07/15 04:36:00;;;;;;;2.53;1.63;;;14.20;99.90;;;;;;4932674;29;20489;-70
2022/07/15 04:38:27;;;;;;;1.25;1.10;;;14.20;99.90;;;;;;4941522;29;20485;-70
2022/07/15 04:40:54;;;;;;;1.50;1.40;;;14.20;99.90;;;;;;4932767;29;20210;-69
2022/07/15 04:43:21;;;;;;;5.67;1.40;;;14.20;99.90;;;;;;4940712;29;20485;-70
2022/07/15 04:45:48;;;;;;;2.53;1.33;;;14.20;99.90;;;;;;4940878;28;20481;-70
2022/07/15 04:51:00;;;;;;;1.70;1.30;;;14.30;99.90;;;;;;4940843;29;20953;-70
2022/07/15 04:53:27;;;;;;;3.03;1.30;;;14.40;99.90;;;;;;4933527;29;20197;-70
2022/07/15 04:55:54;;;;;;;3.60;1.43;;;14.40;99.90;;;;;;4941060;28;20596;-69
2022/07/15 04:58:21;;;;;;;3.40;1.63;;;14.50;99.90;;;;;;4942594;29;20496;-69
2022/07/15 05:00:48;;;;;;;4.30;1.60;;;14.60;99.90;;;;;;4936400;29;20472;-72
2022/07/15 05:03:15;;;;;;;5.03;1.90;;;14.70;99.90;;;;;;4937151;29;20503;-69
2022/07/15 05:05:41;;;;;;;3.07;1.50;;;14.70;99.90;;;;;;4933577;29;20495;-70
2022/07/15 05:08:10;;;;;;;2.03;1.40;;;14.70;99.90;;;;;;4953049;28;20488;-69
2022/07/15 05:10:36;;;;;;;1.53;1.43;;;14.70;99.90;;;;;;4942370;29;20886;-70
2022/07/15 05:13:04;;;;;;;3.03;1.30;;;14.70;99.90;;;;;;4947471;29;20463;-70
2022/07/15 05:15:30;;;;;;;4.83;1.30;;;14.70;99.90;;;;;;4943502;28;20535;-70
2022/07/15 05:17:57;;;;;;;1.23;1.23;;;14.70;99.90;;;;;;4946074;29;21021;-69
2022/07/15 05:20:24;;;;;;;5.70;2.10;;;14.60;99.90;;;;;;4937417;29;20304;-69
2022/07/15 05:22:51;;;;;;;3.27;2.00;;;14.60;99.90;;;;;;4939987;29;20472;-71
2022/07/15 05:25:19;;;;;;;2.23;1.33;;;14.50;99.90;;;;;;4939258;28;20488;-69
2022/07/15 05:27:46;;;;;;;1.77;1.17;;;14.50;99.90;;;;;;4940829;28;20454;-71
2022/07/15 05:30:15;;;;;;;3.47;1.73;;;14.40;99.90;;;;;;4931383;29;20841;-69
2022/07/15 05:32:42;;;;;;;2.83;1.43;;;14.30;99.90;;;;;;4940576;29;20474;-69
2022/07/15 05:35:09;;;;;;;3.97;1.50;;;14.30;99.90;;;;;;4931726;29;20547;-70
2022/07/15 05:37:39;;;;;;;4.97;2.35;;;14.40;99.90;;;;;;4940684;29;20236;-69
2022/07/15 05:40:07;;;;;;;5.93;1.60;;;14.40;99.90;;;;;;4932111;29;20312;-69
2022/07/15 05:42:35;;;;;;;3.93;2.00;;;14.50;99.90;;;;;;4940904;29;20792;-69
2022/07/15 05:45:02;;;;;;;3.93;1.50;;;14.60;99.90;;;;;;4932062;29;20494;-69
2022/07/15 05:47:29;;;;;;;6.47;2.33;;;14.60;99.90;;;;;;4939410;29;20476;-68
2022/07/15 05:49:56;;;;;;;3.10;1.53;;;14.70;99.90;;;;;;4931574;29;20474;-68
2022/07/15 05:52:23;;;;;;;2.80;1.60;;;14.80;99.90;;;;;;4939398;29;20468;-68
2022/07/15 05:54:50;;;;;;;3.65;1.65;;;14.90;99.90;;;;;;4940697;29;20488;-70
2022/07/15 05:57:17;;;;;;;2.93;1.47;;;15.00;99.90;;;;;;4931481;29;20226;-69
2022/07/15 05:59:45;;;;;;;2.90;1.60;;;15.00;99.90;;;;;;4940316;29;20850;-68
2022/07/15 06:02:13;;;;;;;3.70;1.10;;;15.00;99.90;;;;;;4936209;29;20216;-68
2022/07/15 06:04:40;;;;;;;4.13;1.40;;;15.00;99.90;;;;;;4938883;29;20477;-69
2022/07/15 06:07:07;;;;;;;3.55;1.70;;;15.10;99.90;;;;;;4940819;29;20469;-69
2022/07/15 06:09:34;;;;;;;3.20;1.33;;;15.10;99.90;;;;;;4932448;29;20210;-69
2022/07/15 06:12:01;;;;;;;1.63;1.53;;;15.30;99.90;;;;;;4938549;29;20465;-69
2022/07/15 06:14:27;;;;;;;2.33;1.45;;;15.40;99.90;;;;;;4933573;29;20486;-69
2022/07/15 06:16:55;;;;;;;3.10;1.93;;;15.50;99.90;;;;;;4934659;29;20210;-69
2022/07/15 06:19:22;;;;;;;1.90;0.90;;;15.70;99.90;;;;;;4931326;29;20523;-70
2022/07/15 06:21:49;;;;;;;3.92;1.45;;;15.80;99.90;;;;;;4945718;29;20486;-69
2022/07/15 06:24:16;;;;;;;1.93;1.03;;;15.80;99.90;;;;;;4936633;29;20206;-70
2022/07/15 06:26:42;;;;;;;4.63;1.37;;;15.80;99.90;;;;;;4944825;28;20484;-69
2022/07/15 06:29:09;;;;;;;3.50;1.30;;;15.80;99.90;;;;;;4948951;28;20457;-67
2022/07/15 06:31:36;;;;;;;4.37;1.50;;;16.00;99.90;;;;;;4940728;29;21153;-70
2022/07/15 06:34:04;;;;;;;3.50;1.30;;;16.00;99.90;;;;;;4934513;29;20465;-69
2022/07/15 06:36:31;;;;;;;1.20;1.10;;;16.10;99.90;;;;;;4941769;29;20527;-69
2022/07/15 06:38:58;;;;;;;4.93;1.00;;;16.10;99.90;;;;;;4933492;29;20500;-70
2022/07/15 06:41:25;;;;;;;1.43;1.30;;;16.10;99.90;;;;;;4935307;29;20478;-68
2022/07/15 06:43:51;;;;;;;2.00;1.03;;;16.20;99.90;;;;;;4938613;29;20966;-69
2022/07/15 06:46:18;;;;;;;1.02;1.00;;;16.20;99.90;;;;;;4943435;28;20548;-70
2022/07/15 06:48:45;;;;;;;9.20;1.30;;;16.10;99.90;;;;;;4938610;29;20209;-67
2022/07/15 06:51:13;;;;;;;2.57;1.33;;;16.10;99.90;;;;;;4949175;29;20979;-69
2022/07/15 06:53:39;;;;;;;4.40;1.43;;;16.20;99.90;;;;;;4938834;29;20468;-68
2022/07/15 06:56:06;;;;;;;2.30;0.90;;;16.30;99.90;;;;;;4942254;29;20508;-69
2022/07/15 06:58:33;;;;;;;1.30;1.00;;;16.30;99.90;;;;;;4936150;29;20489;-69
2022/07/15 07:01:00;;;;;;;2.30;1.20;;;16.40;99.90;;;;;;4937247;29;21288;-69
2022/07/15 07:03:27;;;;;;;2.93;1.20;;;16.40;99.90;;;;;;4942014;29;20485;-69
2022/07/15 07:05:53;;;;;;;1.70;1.17;;;16.60;99.90;;;;;;4939841;29;20499;-68
2022/07/15 07:08:21;;;;;;;3.27;1.13;;;16.80;99.90;;;;;;4943365;29;20472;-70
2022/07/15 07:10:48;;;;;;;3.55;1.08;;;17.00;99.90;;;;;;4935307;29;20473;-70
2022/07/15 07:13:15;;;;;;;1.33;0.97;;;17.10;99.90;;;;;;4935765;29;20638;-70
2022/07/15 07:15:42;;;;;;;1.80;1.20;;;17.20;99.90;;;;;;4935021;29;20504;-70
2022/07/15 07:18:08;;;;;;;3.25;1.20;;;17.30;99.90;;;;;;4935281;29;20500;-70
2022/07/15 07:20:37;;;;;;;2.40;1.03;;;17.80;99.90;;;;;;4933337;29;20338;-68
2022/07/15 07:23:04;;;;;;;2.63;1.00;;;18.90;99.90;;;;;;4932995;29;20498;-70
2022/07/15 07:25:32;;;;;;;4.60;1.10;;;19.90;99.90;;;;;;4942516;29;20491;-70
2022/07/15 07:28:03;;;;;;;3.00;0.90;;;20.70;99.90;;;;;;4942369;29;20472;-71
2022/07/15 07:30:30;;;;;;;2.70;0.77;;;21.60;99.90;;;;;;4935942;29;20479;-71
2022/07/15 07:32:56;;;;;;;1.07;0.80;;;21.70;99.90;;;;;;4943543;29;20205;-71
2022/07/15 07:35:24;;;;;;;2.63;0.97;;;22.20;99.90;;;;;;4929133;29;20915;-72
2022/07/15 07:37:51;;;;;;;1.47;1.20;;;22.70;99.90;;;;;;4947434;29;20797;-71
2022/07/15 07:40:18;;;;;;;1.40;1.13;;;23.00;99.90;;;;;;4933998;29;20483;-69
2022/07/15 07:42:46;;;;;;;3.30;1.27;;;22.50;99.90;;;;;;4944666;29;20465;-71
2022/07/15 07:45:13;;;;;;;1.63;0.93;;;21.80;99.90;;;;;;4935373;29;20861;-70
2022/07/15 07:47:41;;;;;;;0.77;0.77;;;21.10;99.90;;;;;;4942376;29;20813;-71
2022/07/15 07:50:09;;;;;;;1.17;1.07;;;20.80;99.90;;;;;;4933460;29;20940;-71
2022/07/15 07:52:36;;;;;;;3.17;1.10;;;20.60;99.90;;;;;;4942551;28;20565;-70
2022/07/15 07:55:03;;;;;;;0.80;0.80;;;20.90;99.90;;;;;;4940069;28;20497;-70
2022/07/15 07:57:30;;;;;;;1.60;0.97;;;21.50;99.90;;;;;;4938553;29;20492;-70
2022/07/15 07:59:58;;;;;;;1.77;1.20;;;21.20;99.90;;;;;;4941873;29;20468;-69
2022/07/15 08:02:24;;;;;;;2.00;1.60;;;20.80;99.90;;;;;;4934085;29;20469;-69
2022/07/15 08:04:51;;;;;;;2.73;1.53;;;20.20;99.90;;;;;;4944723;28;21003;-71
2022/07/15 08:07:18;;;;;;;1.53;0.77;;;19.50;99.90;;;;;;4942069;29;20465;-70
2022/07/15 08:09:45;;;;;;;3.60;0.80;;;19.20;99.90;;;;;;4939973;29;20486;-70
2022/07/15 08:12:12;;;;;;;1.00;0.85;;;18.90;99.90;;;;;;4940300;28;20497;-70
2022/07/15 08:14:39;;;;;;;4.17;0.97;;;18.50;99.90;;;;;;4952363;28;20982;-69
2022/07/15 08:17:07;;;;;;;1.00;0.60;;;18.30;99.90;;;;;;4941980;29;20466;-70
2022/07/15 08:19:34;;;;;;;0.83;0.83;;;18.10;99.90;;;;;;4941879;29;20557;-71
2022/07/15 08:22:01;;;;;;;1.60;0.90;;;18.10;99.90;;;;;;4939333;29;20466;-70
2022/07/15 08:24:27;;;;;;;2.43;1.23;;;18.00;99.90;;;;;;4930794;29;20989;-71
2022/07/15 08:26:54;;;;;;;3.23;1.17;;;18.10;99.90;;;;;;4940480;28;20462;-71
2022/07/15 08:29:21;;;;;;;1.07;0.90;;;18.00;99.90;;;;;;4933178;29;20470;-71
2022/07/15 08:31:48;;;;;;;1.17;0.83;;;18.10;99.90;;;;;;4940835;29;20473;-71
2022/07/15 08:34:16;;;;;;;1.07;0.97;;;18.00;99.90;;;;;;4932347;29;20822;-71
2022/07/15 08:36:42;;;;;;;2.10;1.10;;;18.10;99.90;;;;;;4941517;28;20494;-70
2022/07/15 08:39:09;;;;;;;4.17;1.00;;;18.00;99.90;;;;;;4933027;29;20493;-70
2022/07/15 08:41:37;;;;;;;2.63;1.07;;;17.90;99.90;;;;;;4941454;29;20491;-70
2022/07/15 08:44:04;;;;;;;1.53;0.90;;;17.80;99.90;;;;;;4931289;29;20474;-70
2022/07/15 08:46:33;;;;;;;2.70;0.80;;;17.70;99.90;;;;;;4939513;29;20501;-70
2022/07/15 08:49:05;;;;;;;1.60;0.90;;;17.50;99.90;;;;;;4933364;29;20212;-70
2022/07/15 08:51:37;;;;;;;1.50;0.87;;;17.40;99.90;;;;;;4934138;29;20977;-69
2022/07/15 08:54:04;;;;;;;1.13;0.70;;;17.40;99.90;;;;;;4935869;29;20481;-71
2022/07/15 08:56:31;;;;;;;2.37;1.10;;;17.40;99.90;;;;;;4940818;29;20539;-70
2022/07/15 08:58:58;;;;;;;0.93;0.90;;;17.50;99.90;;;;;;4929530;29;21100;-70
2022/07/15 09:01:25;;;;;;;1.67;0.70;;;17.60;99.90;;;;;;4933501;29;20473;-71
2022/07/15 09:03:52;;;;;;;1.60;1.07;;;17.50;99.90;;;;;;4939636;29;20479;-69
2022/07/15 09:06:33;;;;;;;3.33;1.00;;;17.60;99.90;;;;;;4937530;28;20500;-71
2022/07/15 09:09:24;;;;;;;1.67;1.00;;;17.60;99.90;;;;;;4938169;29;20598;-69
2022/07/15 09:11:55;;;;;;;2.72;1.05;;;17.80;99.90;;;;;;4932478;29;20474;-70
2022/07/15 09:14:22;;;;;;;1.10;1.00;;;17.90;99.90;;;;;;4941014;29;20209;-71
2022/07/15 09:16:49;;;;;;;1.40;0.60;;;18.20;99.90;;;;;;4931049;28;20495;-71
2022/07/15 09:19:16;;;;;;;2.10;0.60;;;18.40;99.90;;;;;;4931792;29;20512;-70
2022/07/15 09:21:44;;;;;;;1.80;0.47;;;18.50;99.90;;;;;;4938055;29;20577;-71
2022/07/15 09:24:18;;;;;;;2.50;0.90;;;18.90;99.90;;;;;;4939482;29;20470;-69
2022/07/15 09:26:45;;;;;;;3.23;0.90;;;19.20;99.90;;;;;;4936522;29;20492;-70
2022/07/15 09:35:00;;;;;;;1.53;0.90;;;19.30;99.90;;;;;;4935235;28;20772;-70
2022/07/15 09:37:28;;;;;;;1.33;0.80;;;19.30;99.90;;;;;;4937852;29;20480;-70
2022/07/15 09:39:57;;;;;;;1.65;0.70;;;19.40;99.90;;;;;;4936302;29;20495;-69
2022/07/15 09:42:24;;;;;;;2.33;1.03;;;19.40;99.90;;;;;;4934974;29;20221;-71
2022/07/15 09:44:51;;;;;;;1.07;0.60;;;19.10;99.90;;;;;;4936150;28;21296;-73
2022/07/15 09:47:20;;;;;;;2.20;0.97;;;18.90;99.90;;;;;;4934727;29;20995;-68
2022/07/15 09:49:47;;;;;;;0.77;0.77;;;18.70;99.90;;;;;;4942866;29;20834;-70
2022/07/15 09:52:15;;;;;;;1.80;0.75;;;18.60;99.90;;;;;;4940454;29;20483;-70
2022/07/15 09:54:45;;;;;;;1.23;0.80;;;18.60;99.90;;;;;;4937568;28;20237;-71
2022/07/15 09:57:15;;;;;;;2.83;0.60;;;18.80;99.90;;;;;;4930975;29;20470;-69
2022/07/15 09:59:41;;;;;;;2.70;0.90;;;18.90;99.90;;;;;;4935445;29;20551;-69
2022/07/15 10:02:09;;;;;;;0.50;0.50;;;19.10;99.90;;;;;;4936748;28;20587;-71
2022/07/15 10:04:36;;;;;;;2.90;1.03;;;19.30;99.90;;;;;;4938055;28;20477;-69
2022/07/15 10:07:04;;;;;;;0.67;0.67;;;19.50;99.90;;;;;;4935776;28;20557;-70
2022/07/15 10:09:33;;;;;;;1.10;1.10;;;19.60;99.90;;;;;;4933958;29;20482;-70
2022/07/15 10:12:05;;;;;;;1.53;1.10;;;19.70;99.90;;;;;;4931798;29;21038;-70
2022/07/15 10:15:07;;;;;;;0.63;0.53;;;19.70;99.90;;;;;;4932661;29;20959;-70
2022/07/15 10:17:51;;;;;;;0.60;0.60;;;19.80;99.90;;;;;;4915638;29;20478;-71
2022/07/15 10:20:47;;;;;;;1.93;0.80;;;19.70;99.90;;;;;;4946243;23;21048;-71
2022/07/15 10:23:31;;;;;;;5.07;0.73;;;19.70;99.90;;;;;;4933422;29;20493;-70
2022/07/15 10:26:13;;;;;;;1.97;0.50;;;19.60;99.90;;;;;;4929092;29;20995;-69
2022/07/15 10:28:50;;;;;;;0.60;0.60;;;19.30;99.90;;;;;;4932992;29;20996;-69
2022/07/15 10:31:20;;;;;;;2.37;0.77;;;19.10;99.90;;;;;;4935554;29;20576;-73
2022/07/15 10:34:19;;;;;;;2.70;0.97;;;18.90;99.90;;;;;;4931989;29;20561;-73
2022/07/15 10:36:59;;;;;;;3.50;0.80;;;18.80;99.90;;;;;;4936718;29;20468;-73
2022/07/15 10:39:28;;;;;;;2.10;0.70;;;18.80;99.90;;;;;;4929743;29;20587;-74
2022/07/15 10:41:57;;;;;;;2.40;0.87;;;18.80;99.90;;;;;;4929312;29;20462;-68
2022/07/15 10:44:26;;;;;;;0.60;0.60;;;18.90;99.90;;;;;;4915618;29;20458;-70
2022/07/15 10:47:19;;;;;;;1.80;0.60;;;19.20;99.90;;;;;;4916581;29;20247;-69
2022/07/15 10:49:47;;;;;;;1.20;0.63;;;19.40;99.90;;;;;;4916883;29;20907;-69
2022/07/15 10:52:16;;;;;;;0.83;0.53;;;19.60;99.90;;;;;;4916192;29;20477;-69
2022/07/15 10:54:48;;;;;;;0.93;0.60;;;19.70;99.90;;;;;;4917714;29;20474;-69
2022/07/15 10:57:19;;;;;;;2.30;1.00;;;19.90;99.90;;;;;;4931927;29;20470;-69
2022/07/15 10:59:53;;;;;;;1.07;0.93;;;20.00;99.90;;;;;;4935840;29;20563;-69
2022/07/15 11:02:22;;;;;;;0.83;0.50;;;20.00;99.90;;;;;;4935758;29;20468;-68
2022/07/15 11:04:50;;;;;;;0.43;0.43;;;20.00;99.90;;;;;;4935973;29;20472;-69
2022/07/15 11:07:25;;;;;;;5.23;0.70;;;19.90;99.90;;;;;;4935378;29;20837;-70
2022/07/15 11:09:53;;;;;;;3.83;0.90;;;20.00;99.90;;;;;;4935571;29;20489;-68
2022/07/15 11:12:22;;;;;;;2.50;0.50;;;20.10;99.90;;;;;;4919758;29;20463;-70
2022/07/15 11:14:53;;;;;;;2.10;0.60;;;20.50;99.90;;;;;;4916960;29;20221;-69
2022/07/15 11:17:24;;;;;;;1.23;0.90;;;20.70;99.90;;;;;;4916212;29;20470;-69
2022/07/15 11:19:53;;;;;;;2.87;0.70;;;20.80;99.90;;;;;;4916139;29;20499;-69
2022/07/15 11:22:22;;;;;;;0.87;0.50;;;20.80;99.90;;;;;;4916294;29;20505;-68
2022/07/15 11:24:49;;;;;;;2.03;0.50;;;20.70;99.90;;;;;;4918076;29;20837;-69
2022/07/15 11:27:15;;;;;;;1.30;0.77;;;20.50;99.90;;;;;;4936905;29;20567;-69
2022/07/15 11:29:44;;;;;;;1.07;0.40;;;20.70;99.90;;;;;;4934589;28;20481;-71
2022/07/15 11:32:14;;;;;;;1.17;0.50;;;20.90;99.90;;;;;;4934033;29;20476;-69
2022/07/15 11:34:42;;;;;;;1.23;0.40;;;21.20;99.90;;;;;;4934892;29;20462;-69
2022/07/15 11:37:11;;;;;;;0.60;0.50;;;21.30;99.90;;;;;;4933558;29;20476;-68
2022/07/15 11:39:38;;;;;;;0.50;0.50;;;21.30;99.90;;;;;;4931212;29;20677;-67
2022/07/15 11:44:50;;;;;;;0.50;0.20;;;21.20;99.90;;;;;;4926777;29;20587;-68
2022/07/15 11:47:19;;;;;;;1.37;0.73;;;21.30;99.90;;;;;;4926142;29;20470;-69
2022/07/15 11:49:46;;;;;;;0.30;0.30;;;21.40;99.80;;;;;;4926661;29;20550;-71
2022/07/15 11:52:23;;;;;;;0.70;0.70;;;21.30;99.60;;;;;;4936475;29;20476;-69
2022/07/15 11:54:50;;;;;;;0.70;0.70;;;21.00;99.90;;;;;;4926510;29;20496;-68
2022/07/15 11:57:18;;;;;;;0.60;0.40;;;20.90;99.90;;;;;;4933736;29;20807;-70
2022/07/15 11:59:55;;;;;;;1.17;0.50;;;20.90;99.90;;;;;;4933042;29;20588;-69
2022/07/15 12:02:26;;;;;;;0.53;0.53;;;21.10;99.90;;;;;;4942973;28;20477;-70
2022/07/15 12:05:04;;;;;;;1.50;0.50;;;21.40;99.90;;;;;;4928017;29;20463;-69
2022/07/15 12:07:40;;;;;;;4.68;0.77;;;21.20;99.90;;;;;;4926309;29;20505;-69
2022/07/15 12:10:08;;;;;;;0.30;0.30;;;21.00;99.90;;;;;;4928861;29;20232;-69
2022/07/15 12:12:35;;;;;;;2.53;0.40;;;20.90;99.90;;;;;;4933619;29;20476;-68
2022/07/15 12:15:02;;;;;;;1.13;0.80;;;20.80;99.90;;;;;;4934575;29;20473;-69
2022/07/15 12:17:30;;;;;;;0.83;0.60;;;20.80;99.90;;;;;;4934379;29;20492;-69
2022/07/15 12:19:58;;;;;;;0.63;0.60;;;20.70;99.90;;;;;;4933368;29;20977;-70
2022/07/15 12:22:25;;;;;;;2.20;0.60;;;20.80;99.90;;;;;;4940633;29;20466;-68
2022/07/15 12:24:52;;;;;;;1.40;0.75;;;21.00;99.90;;;;;;4935973;29;20474;-69
2022/07/15 12:27:20;;;;;;;1.03;0.40;;;21.10;99.90;;;;;;4939069;29;20214;-69
2022/07/15 12:29:47;;;;;;;1.23;0.60;;;21.20;99.90;;;;;;4936939;29;20489;-70
2022/07/15 12:32:15;;;;;;;0.93;0.40;;;21.30;99.90;;;;;;4932532;29;20777;-70
2022/07/15 12:34:52;;;;;;;3.20;0.50;;;21.50;99.90;;;;;;4933766;29;20548;-69
2022/07/15 12:37:22;;;;;;;2.67;2.13;;;21.70;99.90;;;;;;4940209;28;20469;-66
2022/07/15 12:40:00;;;;;;;0.93;0.37;;;21.70;99.90;;;;;;4940403;29;20548;-68
2022/07/15 12:42:29;;;;;;;0.40;0.40;;;21.70;99.90;;;;;;4933316;29;20595;-69
2022/07/15 12:45:14;;;;;;;0.57;0.57;;;21.80;99.90;;;;;;4934786;29;22227;-69
2022/07/15 12:48:00;;;;;;;0.30;0.30;;;21.80;99.90;;;;;;4936275;29;20500;-69
2022/07/15 12:50:28;;;;;;;1.00;0.90;;;21.80;99.90;;;;;;4924051;29;20584;-70
2022/07/15 12:52:56;;;;;;;0.52;0.52;;;21.90;99.90;;;;;;4937479;29;20465;-70
2022/07/15 12:55:26;;;;;;;0.67;0.60;;;21.80;99.90;;;;;;4933454;29;20693;-70
2022/07/15 12:58:04;;;;;;;0.40;0.40;;;21.80;99.90;;;;;;4927136;29;20473;-70
2022/07/15 13:00:30;;;;;;;0.50;0.50;;;21.70;99.90;;;;;;4934881;29;20504;-69
2022/07/15 13:03:00;;;;;;;0.75;0.75;;;21.50;99.90;;;;;;4938774;28;20555;-69
2022/07/15 13:05:30;;;;;;;1.90;0.73;;;21.50;99.90;;;;;;4916361;29;20207;-70
2022/07/15 13:07:57;;;;;;;1.30;0.82;;;21.30;99.90;;;;;;4924717;29;20474;-69
2022/07/15 13:10:25;;;;;;;0.93;0.80;;;21.30;99.90;;;;;;4934761;28;20218;-69
2022/07/15 13:12:52;;;;;;;0.63;0.63;;;21.20;99.90;;;;;;4922446;29;20480;-69
2022/07/15 13:15:18;;;;;;;1.07;0.70;;;21.20;99.90;;;;;;4935233;28;20477;-69
2022/07/15 13:17:45;;;;;;;2.40;0.80;;;21.30;99.90;;;;;;4933468;29;20817;-69
2022/07/15 13:20:13;;;;;;;1.00;0.60;;;21.20;99.90;;;;;;4932158;29;20840;-69
2022/07/15 13:22:41;;;;;;;0.60;0.60;;;21.10;99.90;;;;;;4932259;29;20525;-69
2022/07/15 13:25:09;;;;;;;0.60;0.60;;;21.30;99.90;;;;;;4926719;29;20494;-68
2022/07/15 13:27:36;;;;;;;2.53;0.80;;;21.60;99.90;;;;;;4917782;29;22151;-69
2022/07/15 13:30:04;;;;;;;1.50;0.67;;;21.70;99.90;;;;;;4938296;28;20831;-70
2022/07/15 13:32:31;;;;;;;1.10;0.60;;;21.60;99.90;;;;;;4929140;29;20837;-69
2022/07/15 13:34:57;;;;;;;1.37;0.50;;;21.70;99.90;;;;;;4933762;28;20199;-68
2022/07/15 13:37:24;;;;;;;2.10;0.40;;;21.80;99.90;;;;;;4934456;29;20473;-68
2022/07/15 13:39:52;;;;;;;0.60;0.40;;;21.80;99.90;;;;;;4937075;29;20497;-68
2022/07/15 13:42:19;;;;;;;0.50;0.50;;;21.80;99.90;;;;;;4937012;29;20573;-69
2022/07/15 13:44:46;;;;;;;1.20;0.40;;;21.80;99.90;;;;;;4940298;29;20473;-69
2022/07/15 13:47:12;;;;;;;3.72;0.88;;;21.70;99.90;;;;;;4934145;29;20462;-69
2022/07/15 13:52:23;;;;;;;1.53;0.70;;;21.10;99.90;;;;;;4933630;29;20560;-69
2022/07/15 13:54:51;;;;;;;0.80;0.77;;;20.90;99.90;;;;;;4922421;29;20833;-69
2022/07/15 13:57:18;;;;;;;2.37;0.50;;;20.70;99.90;;;;;;4941017;29;20488;-65
2022/07/15 13:59:45;;;;;;;1.40;0.73;;;20.30;99.90;;;;;;4935625;29;20492;-68
2022/07/15 14:02:11;;;;;;;0.60;0.60;;;20.10;99.90;;;;;;4921808;29;20560;-68
2022/07/15 14:04:38;;;;;;;2.20;0.97;;;20.10;99.90;;;;;;4921825;29;20469;-68
2022/07/15 14:07:05;;;;;;;2.10;0.80;;;20.00;99.90;;;;;;4935837;29;20469;-69
2022/07/15 14:09:31;;;;;;;0.63;0.57;;;20.10;99.90;;;;;;4936235;29;20541;-65
2022/07/15 14:11:59;;;;;;;0.83;0.70;;;20.00;99.90;;;;;;4938631;29;20555;-69
2022/07/15 14:14:26;;;;;;;2.13;0.73;;;20.00;99.90;;;;;;4939590;28;20475;-69
2022/07/15 14:16:54;;;;;;;1.20;0.70;;;20.00;99.90;;;;;;4931650;29;20473;-69
2022/07/15 14:19:20;;;;;;;0.80;0.80;;;19.70;99.90;;;;;;4930655;29;20230;-67
2022/07/15 14:21:47;;;;;;;2.97;1.00;;;19.50;99.90;;;;;;4936238;29;20486;-70
2022/07/15 14:24:14;;;;;;;1.70;1.33;;;19.30;99.90;;;;;;4930060;29;20508;-68
2022/07/15 14:26:40;;;;;;;1.73;1.00;;;19.40;99.90;;;;;;4926477;29;20477;-69
2022/07/15 14:29:09;;;;;;;1.20;0.90;;;19.50;99.90;;;;;;4936618;29;20815;-69
2022/07/15 14:31:36;;;;;;;0.80;0.80;;;19.20;99.90;;;;;;4945441;29;20546;-67
2022/07/15 14:34:03;;;;;;;0.80;0.80;;;19.10;99.90;;;;;;4936793;29;20484;-69
2022/07/15 14:36:29;;;;;;;2.77;0.83;;;19.20;99.90;;;;;;4931997;29;20956;-70
2022/07/15 14:38:56;;;;;;;3.27;0.90;;;19.40;99.90;;;;;;4937005;29;20476;-68
2022/07/15 14:41:24;;;;;;;1.00;0.60;;;19.70;99.90;;;;;;4934407;28;20986;-70
2022/07/15 14:43:50;;;;;;;1.63;0.70;;;20.00;99.90;;;;;;4917010;29;20466;-69
2022/07/15 14:46:18;;;;;;;0.40;0.40;;;20.20;99.90;;;;;;4931022;29;20828;-68
2022/07/15 14:48:45;;;;;;;0.50;0.50;;;20.50;99.90;;;;;;4941790;29;21014;-67
2022/07/15 14:51:12;;;;;;;1.00;0.90;;;20.70;99.90;;;;;;4938450;29;20837;-70
2022/07/15 14:53:39;;;;;;;0.87;0.63;;;20.70;99.90;;;;;;4942424;28;20473;-69
2022/07/15 14:56:06;;;;;;;1.27;0.73;;;20.80;99.90;;;;;;4938169;29;20464;-70
2022/07/15 14:58:33;;;;;;;0.77;0.73;;;20.90;99.90;;;;;;4936679;28;20461;-70
2022/07/15 15:00:59;;;;;;;0.67;0.40;;;21.00;99.90;;;;;;4933785;29;20494;-69
2022/07/15 15:03:28;;;;;;;0.50;0.50;;;21.10;99.90;;;;;;4934996;29;20477;-70
2022/07/15 15:05:55;;;;;;;0.83;0.43;;;21.10;99.90;;;;;;4937232;29;20477;-70
2022/07/15 15:08:22;;;;;;;0.90;0.60;;;21.00;99.90;;;;;;4927866;29;20804;-70
2022/07/15 15:10:49;;;;;;;0.93;0.60;;;21.10;99.90;;;;;;4933706;29;20504;-69
2022/07/15 15:13:16;;;;;;;0.97;0.80;;;21.20;99.90;;;;;;4936396;29;20474;-70
2022/07/15 15:15:43;;;;;;;2.97;1.77;;;21.10;99.90;;;;;;4931744;28;20460;-70
2022/07/15 15:18:10;;;;;;;6.20;5.50;;;21.00;99.90;;;;;;4926671;29;20473;-70
2022/07/15 15:20:38;;;;;;;2.93;1.07;;;20.90;99.90;;;;;;4935133;28;21309;-70
2022/07/15 15:23:05;;;;;;;3.33;1.83;;;20.70;99.90;;;;;;4939621;28;20667;-70
2022/07/15 15:28:16;;;;;;;1.33;0.63;;;20.50;99.90;;;;;;4939580;29;20507;-70
2022/07/15 15:30:42;;;;;;;3.87;1.97;;;20.40;99.90;;;;;;4931423;28;20482;-70
2022/07/15 15:33:09;;;;;;;0.50;0.50;;;20.50;99.90;;;;;;4923534;29;20480;-70
2022/07/15 15:35:37;;;;;;;0.50;0.50;;;20.70;99.90;;;;;;4933447;28;20466;-68
2022/07/15 15:38:04;;;;;;;1.80;0.93;;;21.00;99.90;;;;;;4932680;29;20488;-69
2022/07/15 15:40:30;;;;;;;1.17;0.70;;;21.10;99.90;;;;;;4935422;28;20493;-71
2022/07/15 15:42:57;;;;;;;0.73;0.73;;;21.40;99.90;;;;;;4919633;29;20478;-71
2022/07/15 15:45:24;;;;;;;0.60;0.60;;;21.40;99.90;;;;;;4937615;28;20202;-70
2022/07/15 15:47:51;;;;;;;1.80;0.60;;;21.40;99.90;;;;;;4926787;29;20548;-70
2022/07/15 15:50:18;;;;;;;1.03;0.70;;;21.20;99.90;;;;;;4926689;29;20486;-70
2022/07/15 15:52:46;;;;;;;1.40;0.70;;;21.00;99.90;;;;;;4935411;29;20847;-65
2022/07/15 15:55:13;;;;;;;0.45;0.45;;;20.90;99.90;;;;;;4930123;29;20475;-70
2022/07/15 15:57:40;;;;;;;1.50;0.60;;;20.90;99.90;;;;;;4933771;29;20210;-69
2022/07/15 16:00:08;;;;;;;0.50;0.47;;;20.90;99.90;;;;;;4934513;29;20493;-70
2022/07/15 16:02:35;;;;;;;0.90;0.80;;;20.60;99.90;;;;;;4934702;29;20479;-69
2022/07/15 16:05:03;;;;;;;2.93;0.73;;;20.70;99.90;;;;;;4937115;29;21214;-70
2022/07/15 16:07:30;;;;;;;1.07;0.70;;;20.90;99.90;;;;;;4935553;29;20476;-70
2022/07/15 16:09:58;;;;;;;0.73;0.53;;;20.80;99.90;;;;;;4933627;29;20990;-69
2022/07/15 16:12:24;;;;;;;0.73;0.50;;;20.60;99.90;;;;;;4934428;29;20469;-70
2022/07/15 16:14:51;;;;;;;0.57;0.57;;;20.50;99.90;;;;;;4934154;29;20469;-70
2022/07/15 16:17:18;;;;;;;0.50;0.50;;;20.40;99.90;;;;;;4935287;29;20500;-68
2022/07/15 16:19:45;;;;;;;0.63;0.63;;;20.50;99.90;;;;;;4950198;23;20501;-69
2022/07/15 16:24:56;;;;;;;0.30;0.30;;;20.70;99.90;;;;;;4939131;29;20754;-68
2022/07/15 16:27:24;;;;;;;1.90;0.50;;;20.50;99.90;;;;;;4950866;29;20468;-67
2022/07/15 16:29:51;;;;;;;0.63;0.63;;;20.30;99.90;;;;;;4945288;29;20492;-67
2022/07/15 16:32:17;;;;;;;3.17;0.60;;;20.30;99.90;;;;;;4965733;28;20204;-68
2022/07/15 16:34:44;;;;;;;0.40;0.40;;;20.40;99.90;;;;;;4966067;28;20460;-69
2022/07/15 16:37:11;;;;;;;0.40;0.40;;;20.60;99.90;;;;;;4970007;28;20561;-68
2022/07/15 16:39:37;;;;;;;2.53;0.73;;;20.60;99.90;;;;;;4970657;28;20468;-68
2022/07/15 16:42:04;;;;;;;1.53;0.40;;;20.50;99.90;;;;;;4971311;28;20495;-69
2022/07/15 16:44:32;;;;;;;0.40;0.40;;;20.30;99.90;;;;;;4962782;28;20996;-69
2022/07/15 16:46:59;;;;;;;0.43;0.40;;;20.20;99.90;;;;;;4960271;28;20499;-69
2022/07/15 16:49:26;;;;;;;1.60;0.40;;;20.00;99.90;;;;;;4963292;28;20529;-69
2022/07/15 16:51:52;;;;;;;0.40;0.40;;;20.10;99.90;;;;;;4958706;28;20496;-70
2022/07/15 16:54:19;;;;;;;0.67;0.40;;;20.20;99.90;;;;;;4970271;28;20493;-69
2022/07/15 16:56:46;;;;;;;0.77;0.50;;;20.20;99.90;;;;;;4971711;28;20467;-69
2022/07/15 16:59:13;;;;;;;0.60;0.30;;;20.10;99.90;;;;;;4969201;28;20464;-69
2022/07/15 17:01:41;;;;;;;0.70;0.70;;;20.00;99.90;;;;;;4970084;28;20498;-69
2022/07/15 17:04:07;;;;;;;2.93;0.63;;;20.10;99.90;;;;;;4965422;28;20467;-70
2022/07/15 17:06:34;;;;;;;2.53;0.60;;;20.10;99.90;;;;;;4963575;28;20495;-69
2022/07/15 17:09:01;;;;;;;1.13;0.53;;;20.10;99.90;;;;;;4971034;28;20474;-69
2022/07/15 17:11:27;;;;;;;0.70;0.47;;;20.10;99.90;;;;;;4958759;28;20546;-70
2022/07/15 17:13:54;;;;;;;2.00;0.53;;;20.00;99.90;;;;;;4971003;28;20468;-69